createdAt,value
2023-05-04T00:00:07.965Z,0.78
2023-05-04T00:01:07.588Z,0.77
2023-05-04T00:02:07.571Z,0.78
2023-05-04T00:03:07.740Z,0.77
2023-05-04T00:04:07.778Z,0.77
2023-05-04T00:05:07.615Z,0.78
2023-05-04T00:06:07.660Z,0.77
2023-05-04T00:07:07.667Z,0.77
2023-05-04T00:08:07.668Z,0.76
2023-05-04T00:09:07.699Z,0.77
2023-05-04T00:10:08.096Z,0.75
2023-05-04T00:11:07.754Z,0.75
2023-05-04T00:12:07.760Z,0.75
2023-05-04T00:13:07.849Z,0.74
2023-05-04T00:14:07.837Z,0.75
2023-05-04T00:15:07.842Z,0.75
2023-05-04T00:16:10.663Z,0.76
2023-05-04T00:17:07.973Z,0.76
2023-05-04T00:18:08.020Z,0.76
2023-05-04T00:19:07.822Z,0.74
2023-05-04T00:20:07.800Z,0.75
2023-05-04T00:21:07.825Z,0.75
2023-05-04T00:22:07.769Z,0.74
2023-05-04T00:23:07.781Z,0.75
2023-05-04T00:24:07.787Z,0.74
2023-05-04T00:25:07.762Z,0.73
2023-05-04T00:26:07.789Z,0.70
2023-05-04T00:27:07.797Z,0.73
2023-05-04T00:28:07.750Z,0.72
2023-05-04T00:29:07.714Z,0.72
2023-05-04T00:30:07.736Z,0.74
2023-05-04T00:31:07.804Z,0.73
2023-05-04T00:32:07.770Z,0.73
2023-05-04T00:33:07.768Z,0.73
2023-05-04T00:34:07.713Z,0.72
2023-05-04T00:35:07.689Z,0.71
2023-05-04T00:36:07.709Z,0.71
2023-05-04T00:37:07.710Z,0.71
2023-05-04T00:38:07.700Z,0.72
2023-05-04T00:39:07.683Z,0.73
2023-05-04T00:40:07.973Z,0.73
2023-05-04T00:41:07.655Z,0.72
2023-05-04T00:42:07.743Z,0.72
2023-05-04T00:43:07.674Z,0.73
2023-05-04T00:44:07.627Z,0.72
2023-05-04T00:45:07.621Z,0.70
2023-05-04T00:46:07.659Z,0.72
2023-05-04T00:47:07.689Z,0.72
2023-05-04T00:48:07.708Z,0.71
2023-05-04T00:49:07.628Z,0.71
2023-05-04T00:50:07.789Z,0.71
2023-05-04T00:51:07.622Z,0.70
2023-05-04T00:52:07.570Z,0.71
2023-05-04T00:53:07.600Z,0.70
2023-05-04T00:54:07.557Z,0.71
2023-05-04T00:55:07.578Z,0.71
2023-05-04T00:56:07.560Z,0.71
2023-05-04T00:57:07.574Z,0.70
2023-05-04T00:58:07.537Z,0.70
2023-05-04T00:59:07.562Z,0.70
2023-05-04T01:00:07.711Z,0.70
2023-05-04T01:01:07.592Z,0.70
2023-05-04T01:02:07.567Z,0.71
2023-05-04T01:03:07.677Z,0.70
2023-05-04T01:04:07.552Z,0.69
2023-05-04T01:05:07.507Z,0.71
2023-05-04T01:06:07.486Z,0.69
2023-05-04T01:07:07.495Z,0.68
2023-05-04T01:08:07.492Z,0.70
2023-05-04T01:09:07.493Z,0.69
2023-05-04T01:10:07.594Z,0.69
2023-05-04T01:11:07.478Z,0.69
2023-05-04T01:12:07.462Z,0.70
2023-05-04T01:13:07.510Z,0.68
2023-05-04T01:14:07.458Z,0.69
2023-05-04T01:15:07.429Z,0.68
2023-05-04T01:16:07.456Z,0.68
2023-05-04T01:17:07.577Z,0.69
2023-05-04T01:18:07.474Z,0.68
2023-05-04T01:19:07.458Z,0.68
2023-05-04T01:20:07.494Z,0.68
2023-05-04T01:21:07.409Z,0.67
2023-05-04T01:22:07.371Z,0.67
2023-05-04T01:23:07.383Z,0.66
2023-05-04T01:24:07.365Z,0.67
2023-05-04T01:25:07.357Z,0.68
2023-05-04T01:26:07.344Z,0.67
2023-05-04T01:27:07.340Z,0.67
2023-05-04T01:28:07.347Z,0.67
2023-05-04T01:29:07.394Z,0.68
2023-05-04T01:30:07.511Z,0.66
2023-05-04T01:31:07.459Z,0.68
2023-05-04T01:32:07.472Z,0.68
2023-05-04T01:33:07.580Z,0.68
2023-05-04T01:34:07.551Z,0.67
2023-05-04T01:35:07.576Z,0.67
2023-05-04T01:36:07.586Z,0.67
2023-05-04T01:37:07.643Z,0.67
2023-05-04T01:38:07.627Z,0.66
2023-05-04T01:39:07.685Z,0.66
2023-05-04T01:40:07.668Z,0.66
2023-05-04T01:41:07.724Z,0.67
2023-05-04T01:42:07.791Z,0.67
2023-05-04T01:43:07.785Z,0.65
2023-05-04T01:44:07.806Z,0.65
2023-05-04T01:45:07.838Z,0.66
2023-05-04T01:46:07.875Z,0.66
2023-05-04T01:47:07.919Z,0.67
2023-05-04T01:48:08.001Z,0.68
2023-05-04T01:49:07.987Z,0.66
2023-05-04T01:50:08.063Z,0.65
2023-05-04T01:51:08.054Z,0.65
2023-05-04T01:52:08.051Z,0.66
2023-05-04T01:53:08.106Z,0.66
2023-05-04T01:54:08.125Z,0.66
2023-05-04T01:55:08.153Z,0.66
2023-05-04T01:56:08.258Z,0.66
2023-05-04T01:57:08.242Z,0.65
2023-05-04T01:58:08.231Z,0.65
2023-05-04T01:59:08.287Z,0.66
2023-05-04T02:00:08.383Z,0.66
2023-05-04T02:01:08.473Z,0.66
2023-05-04T02:02:08.531Z,0.65
2023-05-04T02:03:08.564Z,0.65
2023-05-04T02:04:08.527Z,0.65
2023-05-04T02:05:08.504Z,0.64
2023-05-04T02:06:08.566Z,0.64
2023-05-04T02:07:08.572Z,0.65
2023-05-04T02:08:08.586Z,0.65
2023-05-04T02:09:08.626Z,0.65
2023-05-04T02:10:08.696Z,0.64
2023-05-04T02:11:08.728Z,0.64
2023-05-04T02:12:08.759Z,0.66
2023-05-04T02:13:08.830Z,0.65
2023-05-04T02:14:08.835Z,0.64
2023-05-04T02:15:08.875Z,0.65
2023-05-04T02:16:08.948Z,0.64
2023-05-04T02:17:08.926Z,0.65
2023-05-04T02:18:08.967Z,0.64
2023-05-04T02:19:08.997Z,0.64
2023-05-04T02:20:09.023Z,0.64
2023-05-04T02:21:09.081Z,0.64
2023-05-04T02:22:09.139Z,0.65
2023-05-04T02:23:09.138Z,0.65
2023-05-04T02:24:09.203Z,0.64
2023-05-04T02:25:09.237Z,0.63
2023-05-04T02:26:09.308Z,0.64
2023-05-04T02:27:09.764Z,0.63
2023-05-04T02:28:09.332Z,0.64
2023-05-04T02:29:09.378Z,0.64
2023-05-04T02:30:09.412Z,0.63
2023-05-04T02:31:09.500Z,0.63
2023-05-04T02:32:09.549Z,0.64
2023-05-04T02:33:09.576Z,0.64
2023-05-04T02:34:09.587Z,0.64
2023-05-04T02:35:09.647Z,0.63
2023-05-04T02:36:09.670Z,0.64
2023-05-04T02:37:09.792Z,0.64
2023-05-04T02:38:09.759Z,0.63
2023-05-04T02:39:09.802Z,0.63
2023-05-04T02:40:09.816Z,0.63
2023-05-04T02:41:09.857Z,0.63
2023-05-04T02:42:09.930Z,0.64
2023-05-04T02:43:09.964Z,0.63
2023-05-04T02:44:10.056Z,0.62
2023-05-04T02:45:10.050Z,0.63
2023-05-04T02:46:10.105Z,0.62
2023-05-04T02:47:10.318Z,0.62
2023-05-04T02:48:10.165Z,0.62
2023-05-04T02:49:10.212Z,0.63
2023-05-04T02:50:10.253Z,0.62
2023-05-04T02:51:10.247Z,0.63
2023-05-04T02:52:10.316Z,0.62
2023-05-04T02:53:10.369Z,0.63
2023-05-04T02:54:10.417Z,0.62
2023-05-04T02:55:10.443Z,0.63
2023-05-04T02:56:10.481Z,0.63
2023-05-04T02:57:10.780Z,0.62
2023-05-04T02:58:10.574Z,0.62
2023-05-04T02:59:10.592Z,0.62
2023-05-04T03:00:10.649Z,0.63
2023-05-04T03:01:10.731Z,0.63
2023-05-04T03:02:10.778Z,0.62
2023-05-04T03:03:10.774Z,0.61
2023-05-04T03:04:10.831Z,0.62
2023-05-04T03:05:10.836Z,0.62
2023-05-04T03:06:10.956Z,0.61
2023-05-04T03:07:10.913Z,0.62
2023-05-04T03:08:10.987Z,0.61
2023-05-04T03:09:11.066Z,0.61
2023-05-04T03:10:11.059Z,0.61
2023-05-04T03:11:11.118Z,0.61
2023-05-04T03:12:11.141Z,0.61
2023-05-04T03:13:11.264Z,0.61
2023-05-04T03:14:11.203Z,0.61
2023-05-04T03:15:11.273Z,0.62
2023-05-04T03:16:11.368Z,0.61
2023-05-04T03:17:11.354Z,0.61
2023-05-04T03:18:11.433Z,0.61
2023-05-04T03:19:11.454Z,0.61
2023-05-04T03:20:11.448Z,0.61
2023-05-04T03:21:11.527Z,0.61
2023-05-04T03:22:11.821Z,0.61
2023-05-04T03:23:11.585Z,0.61
2023-05-04T03:24:11.702Z,0.61
2023-05-04T03:25:11.693Z,0.62
2023-05-04T03:26:11.729Z,0.62
2023-05-04T03:27:11.790Z,0.61
2023-05-04T03:28:11.818Z,0.61
2023-05-04T03:29:11.846Z,0.61
2023-05-04T03:30:11.869Z,0.60
2023-05-04T03:31:11.932Z,0.61
2023-05-04T03:32:12.064Z,0.60
2023-05-04T03:33:12.123Z,0.61
2023-05-04T03:34:12.055Z,0.60
2023-05-04T03:35:12.108Z,0.60
2023-05-04T03:36:12.114Z,0.61
2023-05-04T03:37:12.329Z,0.61
2023-05-04T03:38:12.209Z,0.60
2023-05-04T03:39:12.228Z,0.60
2023-05-04T03:40:12.299Z,0.59
2023-05-04T03:41:12.364Z,0.61
2023-05-04T03:42:12.399Z,0.59
2023-05-04T03:43:12.412Z,0.60
2023-05-04T03:44:12.544Z,0.60
2023-05-04T03:45:12.563Z,0.61
2023-05-04T03:46:12.609Z,0.60
2023-05-04T03:47:12.623Z,0.59
2023-05-04T03:48:12.758Z,0.61
2023-05-04T03:49:12.718Z,0.60
2023-05-04T03:50:12.722Z,0.60
2023-05-04T03:51:12.788Z,0.59
2023-05-04T03:52:13.318Z,0.59
2023-05-04T03:53:12.896Z,0.60
2023-05-04T03:54:12.969Z,0.60
2023-05-04T03:55:13.018Z,0.59
2023-05-04T03:56:13.017Z,0.59
2023-05-04T03:57:13.306Z,0.59
2023-05-04T03:58:13.102Z,0.59
2023-05-04T03:59:13.177Z,0.60
2023-05-04T04:00:13.284Z,0.60
2023-05-04T04:01:13.239Z,0.59
2023-05-04T04:02:13.355Z,0.59
2023-05-04T04:03:13.520Z,0.59
2023-05-04T04:04:13.445Z,0.59
2023-05-04T04:05:13.429Z,0.59
2023-05-04T04:06:13.494Z,0.59
2023-05-04T04:07:13.484Z,0.58
2023-05-04T04:08:13.568Z,0.58
2023-05-04T04:09:13.629Z,0.59
2023-05-04T04:10:13.664Z,0.59
2023-05-04T04:11:13.691Z,0.60
2023-05-04T04:12:13.895Z,0.59
2023-05-04T04:13:13.813Z,0.57
2023-05-04T04:14:13.825Z,0.59
2023-05-04T04:15:13.865Z,0.58
2023-05-04T04:16:13.956Z,0.57
2023-05-04T04:17:14.319Z,0.58
2023-05-04T04:18:13.986Z,0.58
2023-05-04T04:19:14.066Z,0.59
2023-05-04T04:20:14.066Z,0.58
2023-05-04T04:21:14.096Z,0.58
2023-05-04T04:22:14.183Z,0.58
2023-05-04T04:23:14.227Z,0.59
2023-05-04T04:24:14.250Z,0.57
2023-05-04T04:25:14.302Z,0.58
2023-05-04T04:26:14.350Z,0.58
2023-05-04T04:27:14.839Z,0.59
2023-05-04T04:28:14.444Z,0.58
2023-05-04T04:29:14.463Z,0.58
2023-05-04T04:30:14.535Z,0.59
2023-05-04T04:31:14.622Z,0.58
2023-05-04T04:32:14.826Z,0.58
2023-05-04T04:33:14.672Z,0.57
2023-05-04T04:34:14.706Z,0.57
2023-05-04T04:35:14.712Z,0.57
2023-05-04T04:36:14.781Z,0.58
2023-05-04T04:37:14.825Z,0.58
2023-05-04T04:38:14.885Z,0.57
2023-05-04T04:39:14.934Z,0.57
2023-05-04T04:40:14.914Z,0.58
2023-05-04T04:41:14.981Z,0.57
2023-05-04T04:42:15.456Z,0.58
2023-05-04T04:43:15.065Z,0.57
2023-05-04T04:44:15.116Z,0.58
2023-05-04T04:45:15.150Z,0.57
2023-05-04T04:46:15.230Z,0.57
2023-05-04T04:47:15.278Z,0.58
2023-05-04T04:48:15.340Z,0.57
2023-05-04T04:49:15.356Z,0.57
2023-05-04T04:50:15.401Z,0.57
2023-05-04T04:51:15.428Z,0.58
2023-05-04T04:52:15.784Z,0.56
2023-05-04T04:53:15.523Z,0.56
2023-05-04T04:54:15.563Z,0.56
2023-05-04T04:55:15.643Z,0.57
2023-05-04T04:56:15.644Z,0.56
2023-05-04T04:57:15.719Z,0.57
2023-05-04T04:58:15.771Z,0.56
2023-05-04T04:59:15.800Z,0.57
2023-05-04T05:00:15.843Z,0.57
2023-05-04T05:01:15.916Z,0.56
2023-05-04T05:02:15.938Z,0.56
2023-05-04T05:03:16.048Z,0.56
2023-05-04T05:04:16.110Z,0.56
2023-05-04T05:05:16.154Z,0.56
2023-05-04T05:06:16.078Z,0.56
2023-05-04T05:07:16.334Z,0.56
2023-05-04T05:08:16.197Z,0.56
2023-05-04T05:09:16.212Z,0.56
2023-05-04T05:10:16.305Z,0.56
2023-05-04T05:11:16.286Z,0.56
2023-05-04T05:12:16.884Z,0.56
2023-05-04T05:13:16.490Z,0.55
2023-05-04T05:14:16.458Z,0.56
2023-05-04T05:15:16.496Z,0.55
2023-05-04T05:16:16.570Z,0.55
2023-05-04T05:17:16.824Z,0.56
2023-05-04T05:18:16.630Z,0.57
2023-05-04T05:19:16.662Z,0.57
2023-05-04T05:20:16.701Z,0.57
2023-05-04T05:21:16.780Z,0.56
2023-05-04T05:22:16.789Z,0.56
2023-05-04T05:23:16.865Z,0.56
2023-05-04T05:24:16.915Z,0.56
2023-05-04T05:25:16.965Z,0.56
2023-05-04T05:26:16.982Z,0.55
2023-05-04T05:27:17.365Z,0.55
2023-05-04T05:28:17.052Z,0.56
2023-05-04T05:29:17.113Z,0.55
2023-05-04T05:30:17.259Z,0.56
2023-05-04T05:31:17.233Z,0.56
2023-05-04T05:32:17.346Z,0.55
2023-05-04T05:33:17.426Z,0.56
2023-05-04T05:34:17.351Z,0.55
2023-05-04T05:35:17.399Z,0.56
2023-05-04T05:36:17.393Z,0.55
2023-05-04T05:37:17.493Z,0.55
2023-05-04T05:38:17.527Z,0.55
2023-05-04T05:39:17.556Z,0.56
2023-05-04T05:40:17.584Z,0.56
2023-05-04T05:41:17.648Z,0.56
2023-05-04T05:42:17.864Z,0.55
2023-05-04T05:43:17.723Z,0.55
2023-05-04T05:44:17.744Z,0.55
2023-05-04T05:45:17.806Z,0.55
2023-05-04T05:46:17.887Z,0.55
2023-05-04T05:47:18.331Z,0.55
2023-05-04T05:48:17.897Z,0.54
2023-05-04T05:49:17.958Z,0.55
2023-05-04T05:50:17.971Z,0.55
2023-05-04T05:51:18.035Z,0.55
2023-05-04T05:52:18.381Z,0.56
2023-05-04T05:53:18.137Z,0.55
2023-05-04T05:54:18.164Z,0.55
2023-05-04T05:55:18.181Z,0.55
2023-05-04T05:56:18.243Z,0.54
2023-05-04T05:57:18.326Z,0.55
2023-05-04T05:58:18.328Z,0.54
2023-05-04T05:59:18.390Z,0.54
2023-05-04T06:00:18.405Z,0.54
2023-05-04T06:01:18.463Z,0.54
2023-05-04T06:02:19.641Z,0.55
2023-05-04T06:03:18.697Z,0.54
2023-05-04T06:04:18.634Z,0.52
2023-05-04T06:05:18.615Z,0.52
2023-05-04T06:06:18.666Z,0.50
2023-05-04T06:07:18.712Z,0.50
2023-05-04T06:08:18.719Z,0.51
2023-05-04T06:09:18.742Z,0.51
2023-05-04T06:10:18.813Z,0.51
2023-05-04T06:11:18.819Z,0.51
2023-05-04T06:12:18.837Z,0.50
2023-05-04T06:13:19.410Z,0.52
2023-05-04T06:14:18.896Z,0.50
2023-05-04T06:15:18.901Z,0.50
2023-05-04T06:16:18.932Z,0.53
2023-05-04T06:17:18.896Z,0.54
2023-05-04T06:18:18.939Z,0.52
2023-05-04T06:19:18.966Z,0.52
2023-05-04T06:20:18.943Z,0.53
2023-05-04T06:21:19.010Z,0.53
2023-05-04T06:22:18.984Z,0.55
2023-05-04T06:23:19.370Z,0.55
2023-05-04T06:24:19.005Z,0.54
2023-05-04T06:25:19.048Z,0.55
2023-05-04T06:26:19.054Z,0.56
2023-05-04T06:27:19.012Z,0.57
2023-05-04T06:28:19.368Z,0.57
2023-05-04T06:29:19.070Z,0.58
2023-05-04T06:30:19.058Z,0.59
2023-05-04T06:31:19.056Z,0.58
2023-05-04T06:32:19.043Z,0.59
2023-05-04T06:33:19.101Z,0.60
2023-05-04T06:34:19.199Z,0.59
2023-05-04T06:35:19.059Z,0.60
2023-05-04T06:36:19.068Z,0.61
2023-05-04T06:37:19.055Z,0.61
2023-05-04T06:38:19.362Z,0.62
2023-05-04T06:39:19.104Z,0.61
2023-05-04T06:40:19.065Z,0.63
2023-05-04T06:41:19.136Z,0.62
2023-05-04T06:42:19.180Z,0.63
2023-05-04T06:43:19.378Z,0.62
2023-05-04T06:44:19.290Z,0.63
2023-05-04T06:45:19.352Z,0.63
2023-05-04T06:46:19.419Z,0.64
2023-05-04T06:47:19.480Z,0.64
2023-05-04T06:48:19.855Z,0.65
2023-05-04T06:49:19.613Z,0.64
2023-05-04T06:50:19.654Z,0.66
2023-05-04T06:51:19.750Z,0.67
2023-05-04T06:52:19.810Z,0.64
2023-05-04T06:53:19.860Z,0.54
2023-05-04T06:54:19.905Z,0.61
2023-05-04T06:55:19.990Z,0.62
2023-05-04T06:56:20.025Z,0.61
2023-05-04T06:57:20.053Z,0.60
2023-05-04T06:58:20.149Z,0.71
2023-05-04T06:59:20.120Z,0.65
2023-05-04T07:00:20.147Z,0.67
2023-05-04T07:01:20.179Z,0.67
2023-05-04T07:02:20.161Z,0.75
2023-05-04T07:03:20.492Z,0.71
2023-05-04T07:04:20.171Z,0.67
2023-05-04T07:05:20.139Z,0.67
2023-05-04T07:06:20.154Z,0.64
2023-05-04T07:07:20.200Z,0.61
2023-05-04T07:08:20.188Z,0.70
2023-05-04T07:09:20.278Z,0.68
2023-05-04T07:10:20.296Z,0.66
2023-05-04T07:11:20.213Z,0.63
2023-05-04T07:12:20.236Z,0.62
2023-05-04T07:13:20.263Z,0.63
2023-05-04T07:14:20.249Z,0.53
2023-05-04T07:15:20.229Z,0.50
2023-05-04T07:16:20.321Z,0.50
2023-05-04T07:17:20.270Z,0.50
2023-05-04T07:18:20.373Z,0.50
2023-05-04T07:19:20.312Z,0.53
2023-05-04T07:20:20.293Z,0.52
2023-05-04T07:21:27.668Z,0.53
2023-05-04T07:22:21.289Z,0.52
2023-05-04T07:23:20.870Z,0.50
2023-05-04T07:24:20.282Z,0.51
2023-05-04T07:25:20.251Z,0.54
2023-05-04T07:26:20.257Z,0.52
2023-05-04T07:27:20.229Z,0.52
2023-05-04T07:28:20.378Z,0.51
2023-05-04T07:29:20.219Z,0.53
2023-05-04T07:30:20.212Z,0.52
2023-05-04T07:31:20.229Z,0.52
2023-05-04T07:32:20.383Z,0.54
2023-05-04T07:33:20.279Z,0.51
2023-05-04T07:34:23.231Z,0.54
2023-05-04T07:35:21.239Z,0.54
2023-05-04T07:36:20.230Z,0.54
2023-05-04T07:37:20.245Z,0.54
2023-05-04T07:38:20.218Z,0.54
2023-05-04T07:39:20.192Z,0.55
2023-05-04T07:40:20.212Z,0.55
2023-05-04T07:41:20.217Z,0.55
2023-05-04T07:42:20.208Z,0.52
2023-05-04T07:43:20.358Z,0.55
2023-05-04T07:44:20.212Z,0.53
2023-05-04T07:45:20.280Z,0.53
2023-05-04T07:46:20.394Z,0.55
2023-05-04T07:47:20.378Z,0.54
2023-05-04T07:48:21.036Z,0.51
2023-05-04T07:49:20.510Z,0.52
2023-05-04T07:50:20.602Z,0.53
2023-05-04T07:51:20.676Z,0.54
2023-05-04T07:52:20.725Z,0.52
2023-05-04T07:53:20.903Z,0.55
2023-05-04T07:54:22.790Z,0.55
2023-05-04T07:55:20.888Z,0.54
2023-05-04T07:56:20.955Z,0.53
2023-05-04T07:57:21.037Z,0.56
2023-05-04T07:58:21.127Z,0.56
2023-05-04T07:59:21.142Z,0.56
2023-05-04T08:00:21.220Z,0.55
2023-05-04T08:01:21.312Z,0.56
2023-05-04T08:02:21.379Z,0.59
2023-05-04T08:03:21.948Z,0.59
2023-05-04T08:04:21.485Z,0.59
2023-05-04T08:05:21.551Z,0.59
2023-05-04T08:06:21.551Z,0.59
2023-05-04T08:07:21.647Z,0.59
2023-05-04T08:08:21.917Z,0.59
2023-05-04T08:09:21.729Z,0.57
2023-05-04T08:10:21.793Z,0.59
2023-05-04T08:11:21.920Z,0.60
2023-05-04T08:12:21.945Z,0.56
2023-05-04T08:13:22.413Z,0.56
2023-05-04T08:14:22.037Z,0.56
2023-05-04T08:15:22.116Z,0.57
2023-05-04T08:16:22.146Z,0.56
2023-05-04T08:17:22.299Z,0.57
2023-05-04T08:18:22.390Z,0.57
2023-05-04T08:19:22.359Z,0.58
2023-05-04T08:20:23.639Z,0.58
2023-05-04T08:21:22.529Z,0.59
2023-05-04T08:22:22.521Z,0.58
2023-05-04T08:23:22.900Z,0.59
2023-05-04T08:24:22.651Z,0.58
2023-05-04T08:25:22.720Z,0.58
2023-05-04T08:26:22.734Z,0.57
2023-05-04T08:27:22.815Z,0.57
2023-05-04T08:28:22.917Z,0.57
2023-05-04T08:29:22.910Z,0.56
2023-05-04T08:30:23.036Z,0.56
2023-05-04T08:31:23.090Z,0.57
2023-05-04T08:32:23.135Z,0.57
2023-05-04T08:33:23.167Z,0.55
2023-05-04T08:34:23.246Z,0.55
2023-05-04T08:35:23.282Z,0.57
2023-05-04T08:36:23.343Z,0.57
2023-05-04T08:37:23.407Z,0.56
2023-05-04T08:38:23.938Z,0.58
2023-05-04T08:39:23.487Z,0.57
2023-05-04T08:40:23.573Z,0.54
2023-05-04T08:41:23.626Z,0.55
2023-05-04T08:42:23.710Z,0.57
2023-05-04T08:43:23.742Z,0.58
2023-05-04T08:44:23.757Z,0.56
2023-05-04T08:45:23.818Z,0.56
2023-05-04T08:46:23.903Z,0.54
2023-05-04T08:47:23.991Z,0.57
2023-05-04T08:48:23.966Z,0.56
2023-05-04T08:49:24.032Z,0.57
2023-05-04T08:50:24.074Z,0.58
2023-05-04T08:51:24.109Z,0.57
2023-05-04T08:52:24.133Z,0.57
2023-05-04T08:53:24.388Z,0.58
2023-05-04T08:54:24.246Z,0.61
2023-05-04T08:55:24.260Z,0.60
2023-05-04T08:56:24.297Z,0.60
2023-05-04T08:57:24.363Z,0.58
2023-05-04T08:58:24.454Z,0.62
2023-05-04T08:59:25.354Z,0.60
2023-05-04T09:00:24.530Z,0.61
2023-05-04T09:01:24.662Z,0.62
2023-05-04T09:02:24.757Z,0.63
2023-05-04T09:03:24.710Z,0.64
2023-05-04T09:04:25.511Z,0.63
2023-05-04T09:05:24.749Z,0.61
2023-05-04T09:06:24.822Z,0.61
2023-05-04T09:07:24.902Z,0.63
2023-05-04T09:08:24.933Z,0.61
2023-05-04T09:09:25.009Z,0.62
2023-05-04T09:10:26.851Z,0.62
2023-05-04T09:11:25.080Z,0.62
2023-05-04T09:12:25.064Z,0.67
2023-05-04T09:13:25.072Z,0.65
2023-05-04T09:14:25.129Z,0.62
2023-05-04T09:15:25.015Z,0.66
2023-05-04T09:16:25.082Z,0.69
2023-05-04T09:17:25.054Z,0.75
2023-05-04T09:18:25.038Z,0.66
2023-05-04T09:19:25.027Z,0.66
2023-05-04T09:20:25.045Z,0.65
2023-05-04T09:21:24.986Z,0.66
2023-05-04T09:22:25.718Z,0.63
2023-05-04T09:23:25.032Z,0.69
2023-05-04T09:24:24.987Z,0.67
2023-05-04T09:25:24.976Z,0.69
2023-05-04T09:26:24.975Z,0.66
2023-05-04T09:27:24.962Z,0.66
2023-05-04T09:28:26.158Z,0.68
2023-05-04T09:29:24.968Z,0.65
2023-05-04T09:30:25.079Z,0.65
2023-05-04T09:31:25.108Z,0.64
2023-05-04T09:32:24.958Z,0.65
2023-05-04T09:33:24.929Z,0.65
2023-05-04T09:34:24.919Z,0.65
2023-05-04T09:35:32.491Z,0.67
2023-05-04T09:36:25.924Z,0.67
2023-05-04T09:37:24.901Z,0.67
2023-05-04T09:38:24.885Z,0.67
2023-05-04T09:39:24.891Z,0.68
2023-05-04T09:40:24.873Z,0.69
2023-05-04T09:41:24.848Z,0.71
2023-05-04T09:42:24.903Z,0.69
2023-05-04T09:43:24.851Z,0.66
2023-05-04T09:44:25.444Z,0.69
2023-05-04T09:45:24.849Z,0.74
2023-05-04T09:46:24.991Z,0.76
2023-05-04T09:47:24.938Z,0.67
2023-05-04T09:48:24.956Z,0.65
2023-05-04T09:49:24.983Z,0.69
2023-05-04T09:50:25.044Z,0.72
2023-05-04T09:51:25.069Z,0.70
2023-05-04T09:52:25.079Z,0.70
2023-05-04T09:53:25.166Z,0.70
2023-05-04T09:54:25.130Z,0.70
2023-05-04T09:55:25.135Z,0.72
2023-05-04T09:56:25.218Z,0.67
2023-05-04T09:57:25.185Z,0.68
2023-05-04T09:58:25.217Z,0.71
2023-05-04T09:59:25.265Z,0.73
2023-05-04T10:00:25.280Z,0.68
2023-05-04T10:01:25.331Z,0.68
2023-05-04T10:02:25.340Z,0.66
2023-05-04T10:03:25.408Z,0.66
2023-05-04T10:04:25.299Z,0.64
2023-05-04T10:05:25.307Z,0.63
2023-05-04T10:06:25.262Z,0.67
2023-05-04T10:07:25.318Z,0.69
2023-05-04T10:08:25.330Z,0.66
2023-05-04T10:09:25.294Z,0.67
2023-05-04T10:10:25.315Z,0.69
2023-05-04T10:11:25.308Z,0.71
2023-05-04T10:12:25.283Z,0.69
2023-05-04T10:13:25.340Z,0.71
2023-05-04T10:14:25.306Z,0.74
2023-05-04T10:15:25.313Z,0.80
2023-05-04T10:16:25.408Z,0.69
2023-05-04T10:17:25.316Z,0.72
2023-05-04T10:18:25.322Z,0.74
2023-05-04T10:19:25.292Z,0.77
2023-05-04T10:20:25.293Z,0.74
2023-05-04T10:21:25.317Z,0.80
2023-05-04T10:22:25.308Z,0.73
2023-05-04T10:23:25.334Z,0.75
2023-05-04T10:24:25.334Z,0.74
2023-05-04T10:25:25.325Z,0.69
2023-05-04T10:26:25.309Z,0.77
2023-05-04T10:27:25.294Z,0.77
2023-05-04T10:28:25.349Z,0.79
2023-05-04T10:29:25.435Z,0.75
2023-05-04T10:30:25.305Z,0.76
2023-05-04T10:31:25.344Z,0.83
2023-05-04T10:32:25.357Z,0.75
2023-05-04T10:33:25.292Z,0.79
2023-05-04T10:34:25.423Z,0.81
2023-05-04T10:35:25.325Z,0.79
2023-05-04T10:36:25.317Z,0.79
2023-05-04T10:37:25.307Z,0.78
2023-05-04T10:38:25.295Z,0.82
2023-05-04T10:39:25.447Z,0.81
2023-05-04T10:40:25.284Z,0.78
2023-05-04T10:41:25.280Z,0.82
2023-05-04T10:42:25.304Z,0.75
2023-05-04T10:43:25.258Z,0.80
2023-05-04T10:44:25.288Z,0.82
2023-05-04T10:45:25.297Z,0.80
2023-05-04T10:46:25.287Z,0.83
2023-05-04T10:47:25.261Z,0.83
2023-05-04T10:48:25.298Z,0.85
2023-05-04T10:49:25.423Z,0.89
2023-05-04T10:50:25.232Z,0.89
2023-05-04T10:51:32.730Z,0.85
2023-05-04T10:52:26.235Z,0.85
2023-05-04T10:53:25.231Z,0.85
2023-05-04T10:54:25.242Z,0.82
2023-05-04T10:55:25.266Z,0.85
2023-05-04T10:56:25.213Z,0.83
2023-05-04T10:57:25.223Z,0.80
2023-05-04T10:58:25.192Z,0.85
2023-05-04T10:59:25.210Z,0.81
2023-05-04T11:00:25.205Z,0.84
2023-05-04T11:01:25.201Z,0.87
2023-05-04T11:02:25.322Z,0.88
2023-05-04T11:03:25.253Z,0.85
2023-05-04T11:04:25.157Z,0.88
2023-05-04T11:05:25.155Z,0.88
2023-05-04T11:06:25.154Z,0.79
2023-05-04T11:07:25.128Z,0.77
2023-05-04T11:08:25.131Z,0.76
2023-05-04T11:09:25.142Z,0.84
2023-05-04T11:10:25.159Z,0.85
2023-05-04T11:11:25.115Z,0.81
2023-05-04T11:12:25.088Z,0.82
2023-05-04T11:13:25.133Z,0.78
2023-05-04T11:14:25.447Z,0.81
2023-05-04T11:15:25.081Z,0.72
2023-05-04T11:16:25.129Z,0.76
2023-05-04T11:17:28.613Z,0.83
2023-05-04T11:18:25.051Z,0.84
2023-05-04T11:19:25.054Z,0.81
2023-05-04T11:20:25.056Z,0.76
2023-05-04T11:21:25.028Z,0.82
2023-05-04T11:22:25.039Z,0.82
2023-05-04T11:23:25.004Z,0.79
2023-05-04T11:24:25.007Z,0.80
2023-05-04T11:25:25.051Z,0.78
2023-05-04T11:26:24.989Z,0.75
2023-05-04T11:27:25.019Z,0.83
2023-05-04T11:28:25.017Z,0.80
2023-05-04T11:29:24.991Z,0.79
2023-05-04T11:30:24.990Z,0.72
2023-05-04T11:31:24.978Z,0.74
2023-05-04T11:32:24.974Z,0.76
2023-05-04T11:33:24.958Z,0.77
2023-05-04T11:34:24.942Z,0.83
2023-05-04T11:35:24.998Z,0.79
2023-05-04T11:36:24.926Z,0.87
2023-05-04T11:37:24.937Z,0.83
2023-05-04T11:38:24.968Z,0.71
2023-05-04T11:39:24.953Z,0.74
2023-05-04T11:40:24.897Z,0.73
2023-05-04T11:41:24.898Z,0.80
2023-05-04T11:42:24.884Z,0.85
2023-05-04T11:43:24.877Z,0.82
2023-05-04T11:44:24.871Z,0.90
2023-05-04T11:45:24.878Z,0.87
2023-05-04T11:46:24.867Z,0.84
2023-05-04T11:47:24.881Z,0.78
2023-05-04T11:48:24.817Z,0.80
2023-05-04T11:49:24.872Z,0.82
2023-05-04T11:50:24.820Z,0.76
2023-05-04T11:51:24.793Z,0.77
2023-05-04T11:52:24.799Z,0.85
2023-05-04T11:53:24.815Z,0.80
2023-05-04T11:54:25.070Z,0.84
2023-05-04T11:55:24.788Z,0.82
2023-05-04T11:56:24.780Z,0.85
2023-05-04T11:57:24.774Z,0.89
2023-05-04T11:58:24.758Z,0.76
2023-05-04T11:59:24.942Z,0.90
2023-05-04T12:00:24.737Z,0.91
2023-05-04T12:01:24.744Z,0.91
2023-05-04T12:02:24.814Z,0.88
2023-05-04T12:03:27.964Z,0.88
2023-05-04T12:04:25.744Z,0.88
2023-05-04T12:05:24.724Z,0.88
2023-05-04T12:06:24.740Z,0.80
2023-05-04T12:07:24.706Z,0.85
2023-05-04T12:08:24.713Z,0.87
2023-05-04T12:09:24.686Z,0.83
2023-05-04T12:10:24.706Z,0.77
2023-05-04T12:11:24.680Z,0.76
2023-05-04T12:12:24.659Z,0.80
2023-05-04T12:13:24.678Z,0.82
2023-05-04T12:14:24.769Z,0.72
2023-05-04T12:15:24.626Z,0.72
2023-05-04T12:16:24.685Z,0.71
2023-05-04T12:17:24.695Z,0.71
2023-05-04T12:18:24.668Z,0.72
2023-05-04T12:19:24.616Z,0.75
2023-05-04T12:20:24.671Z,0.75
2023-05-04T12:21:24.656Z,0.76
2023-05-04T12:22:24.587Z,0.71
2023-05-04T12:23:24.581Z,0.75
2023-05-04T12:24:25.096Z,0.71
2023-05-04T12:25:24.604Z,0.73
2023-05-04T12:26:24.554Z,0.73
2023-05-04T12:27:24.555Z,0.75
2023-05-04T12:28:24.572Z,0.71
2023-05-04T12:29:24.538Z,0.70
2023-05-04T12:30:24.518Z,0.68
2023-05-04T12:31:25.222Z,0.62
2023-05-04T12:32:24.653Z,0.66
2023-05-04T12:33:24.501Z,0.66
2023-05-04T12:34:24.507Z,0.60
2023-05-04T12:35:24.499Z,0.66
2023-05-04T12:36:24.489Z,0.67
2023-05-04T12:37:25.108Z,0.68
2023-05-04T12:38:24.472Z,0.69
2023-05-04T12:39:24.479Z,0.64
2023-05-04T12:40:28.634Z,0.59
2023-05-04T12:41:24.457Z,0.60
2023-05-04T12:42:24.503Z,0.60
2023-05-04T12:43:24.474Z,0.60
2023-05-04T12:44:24.443Z,0.60
2023-05-04T12:45:24.455Z,0.63
2023-05-04T12:46:24.509Z,0.60
2023-05-04T12:47:24.462Z,0.60
2023-05-04T12:48:24.435Z,0.59
2023-05-04T12:49:25.066Z,0.60
2023-05-04T12:50:24.418Z,0.59
2023-05-04T12:51:24.422Z,0.59
2023-05-04T12:52:24.422Z,0.57
2023-05-04T12:53:24.393Z,0.57
2023-05-04T12:54:24.358Z,0.57
2023-05-04T12:55:25.551Z,0.60
2023-05-04T12:56:24.373Z,0.58
2023-05-04T12:57:24.367Z,0.55
2023-05-04T12:58:24.347Z,0.55
2023-05-04T12:59:24.338Z,0.55
2023-05-04T13:00:24.335Z,0.57
2023-05-04T13:01:31.401Z,0.54
2023-05-04T13:02:24.394Z,0.54
2023-05-04T13:03:24.446Z,0.54
2023-05-04T13:04:24.325Z,0.54
2023-05-04T13:05:24.319Z,0.54
2023-05-04T13:06:24.279Z,0.53
2023-05-04T13:07:24.269Z,0.50
2023-05-04T13:08:24.294Z,0.52
2023-05-04T13:09:24.300Z,0.50
2023-05-04T13:10:24.276Z,0.51
2023-05-04T13:11:24.271Z,0.50
2023-05-04T13:12:24.231Z,0.51
2023-05-04T13:13:24.485Z,0.53
2023-05-04T13:14:24.305Z,0.51
2023-05-04T13:15:24.226Z,0.53
2023-05-04T13:16:24.343Z,0.52
2023-05-04T13:17:24.257Z,0.52
2023-05-04T13:18:24.217Z,0.51